sensor_id;sensor_type;location;lat;lon;timestamp;temperature;humidity
24645;DHT22;12780;45.502;9.146;2023-02-27T00:01:56;5.50;99.90
24645;DHT22;12780;45.502;9.146;2023-02-27T00:04:22;5.50;99.90
24645;DHT22;12780;45.502;9.146;2023-02-27T00:06:47;5.60;99.90
24645;DHT22;12780;45.502;9.146;2023-02-27T00:09:13;5.50;99.90
24645;DHT22;12780;45.502;9.146;2023-02-27T00:11:38;5.50;99.90
24645;DHT22;12780;45.502;9.146;2023-02-27T00:14:04;5.50;99.90
24645;DHT22;12780;45.502;9.146;2023-02-27T00:16:30;5.50;99.90
24645;DHT22;12780;45.502;9.146;2023-02-27T00:18:55;5.40;99.90
24645;DHT22;12780;45.502;9.146;2023-02-27T00:21:23;5.40;99.90
24645;DHT22;12780;45.502;9.146;2023-02-27T00:23:49;5.30;99.90
24645;DHT22;12780;45.502;9.146;2023-02-27T00:26:15;5.30;99.90
24645;DHT22;12780;45.502;9.146;2023-02-27T00:28:41;5.30;99.90
24645;DHT22;12780;45.502;9.146;2023-02-27T00:31:07;5.20;99.90
24645;DHT22;12780;45.502;9.146;2023-02-27T00:33:32;5.20;99.90
24645;DHT22;12780;45.502;9.146;2023-02-27T00:35:59;5.20;99.90
24645;DHT22;12780;45.502;9.146;2023-02-27T00:38:25;5.10;99.90
24645;DHT22;12780;45.502;9.146;2023-02-27T00:40:51;5.10;99.90
24645;DHT22;12780;45.502;9.146;2023-02-27T00:43:17;5.10;99.90
24645;DHT22;12780;45.502;9.146;2023-02-27T00:45:42;5.10;99.90
24645;DHT22;12780;45.502;9.146;2023-02-27T00:48:08;5.10;99.90
24645;DHT22;12780;45.502;9.146;2023-02-27T00:50:34;5.10;99.90
24645;DHT22;12780;45.502;9.146;2023-02-27T00:52:59;5.10;99.90
24645;DHT22;12780;45.502;9.146;2023-02-27T00:55:25;5.20;99.90
24645;DHT22;12780;45.502;9.146;2023-02-27T00:57:50;5.20;99.90
24645;DHT22;12780;45.502;9.146;2023-02-27T01:00:16;5.20;99.90
24645;DHT22;12780;45.502;9.146;2023-02-27T01:02:42;5.20;99.90
24645;DHT22;12780;45.502;9.146;2023-02-27T01:05:07;5.20;99.90
24645;DHT22;12780;45.502;9.146;2023-02-27T01:07:33;5.20;99.90
24645;DHT22;12780;45.502;9.146;2023-02-27T01:09:59;5.10;99.90
24645;DHT22;12780;45.502;9.146;2023-02-27T01:12:26;5.10;99.90
24645;DHT22;12780;45.502;9.146;2023-02-27T01:14:51;5.00;99.90
24645;DHT22;12780;45.502;9.146;2023-02-27T01:17:17;5.10;99.90
24645;DHT22;12780;45.502;9.146;2023-02-27T01:19:43;5.10;99.90
24645;DHT22;12780;45.502;9.146;2023-02-27T01:22:08;5.10;99.90
24645;DHT22;12780;45.502;9.146;2023-02-27T01:24:34;5.10;99.90
24645;DHT22;12780;45.502;9.146;2023-02-27T01:26:59;5.10;99.90
24645;DHT22;12780;45.502;9.146;2023-02-27T01:29:25;5.10;99.90
24645;DHT22;12780;45.502;9.146;2023-02-27T01:31:51;5.30;99.90
24645;DHT22;12780;45.502;9.146;2023-02-27T01:34:16;5.20;99.90
24645;DHT22;12780;45.502;9.146;2023-02-27T01:36:42;5.20;99.90
24645;DHT22;12780;45.502;9.146;2023-02-27T01:39:08;5.20;99.90
24645;DHT22;12780;45.502;9.146;2023-02-27T01:41:34;5.20;99.90
24645;DHT22;12780;45.502;9.146;2023-02-27T01:44:03;5.20;99.90
24645;DHT22;12780;45.502;9.146;2023-02-27T01:46:30;5.20;99.90
24645;DHT22;12780;45.502;9.146;2023-02-27T01:49:12;5.20;99.90
24645;DHT22;12780;45.502;9.146;2023-02-27T01:51:49;5.10;99.90
24645;DHT22;12780;45.502;9.146;2023-02-27T01:54:19;5.00;99.90
24645;DHT22;12780;45.502;9.146;2023-02-27T01:56:46;5.00;99.90
24645;DHT22;12780;45.502;9.146;2023-02-27T01:59:12;5.00;99.90
24645;DHT22;12780;45.502;9.146;2023-02-27T02:01:39;5.00;99.90
24645;DHT22;12780;45.502;9.146;2023-02-27T02:04:25;5.00;99.90
24645;DHT22;12780;45.502;9.146;2023-02-27T02:06:56;4.90;99.90
24645;DHT22;12780;45.502;9.146;2023-02-27T02:09:23;4.90;99.90
24645;DHT22;12780;45.502;9.146;2023-02-27T02:11:50;4.90;99.90
24645;DHT22;12780;45.502;9.146;2023-02-27T02:14:16;4.90;99.90
24645;DHT22;12780;45.502;9.146;2023-02-27T02:30:46;4.70;99.90
24645;DHT22;12780;45.502;9.146;2023-02-27T02:33:28;4.70;99.90
24645;DHT22;12780;45.502;9.146;2023-02-27T02:44:16;4.50;99.90
24645;DHT22;12780;45.502;9.146;2023-02-27T02:47:06;4.50;99.90
24645;DHT22;12780;45.502;9.146;2023-02-27T02:58:02;4.50;99.90
24645;DHT22;12780;45.502;9.146;2023-02-27T03:00:34;4.50;99.90
24645;DHT22;12780;45.502;9.146;2023-02-27T03:03:30;4.40;99.90
24645;DHT22;12780;45.502;9.146;2023-02-27T03:06:09;4.40;99.90
24645;DHT22;12780;45.502;9.146;2023-02-27T03:08:42;4.40;99.90
24645;DHT22;12780;45.502;9.146;2023-02-27T03:11:10;4.40;99.90
24645;DHT22;12780;45.502;9.146;2023-02-27T03:13:49;4.50;99.90
24645;DHT22;12780;45.502;9.146;2023-02-27T03:16:27;4.40;99.90
24645;DHT22;12780;45.502;9.146;2023-02-27T03:19:10;4.40;99.90
24645;DHT22;12780;45.502;9.146;2023-02-27T03:21:50;4.40;99.90
24645;DHT22;12780;45.502;9.146;2023-02-27T03:24:40;4.40;99.90
24645;DHT22;12780;45.502;9.146;2023-02-27T03:27:08;4.40;99.90
24645;DHT22;12780;45.502;9.146;2023-02-27T03:29:49;4.40;99.90
24645;DHT22;12780;45.502;9.146;2023-02-27T03:32:46;4.50;99.90
24645;DHT22;12780;45.502;9.146;2023-02-27T03:35:16;4.40;99.90
24645;DHT22;12780;45.502;9.146;2023-02-27T03:37:51;4.40;99.90
24645;DHT22;12780;45.502;9.146;2023-02-27T03:40:31;4.50;99.90
24645;DHT22;12780;45.502;9.146;2023-02-27T03:43:11;4.50;99.90
24645;DHT22;12780;45.502;9.146;2023-02-27T03:45:54;4.40;99.90
24645;DHT22;12780;45.502;9.146;2023-02-27T03:48:23;4.40;99.90
24645;DHT22;12780;45.502;9.146;2023-02-27T03:50:48;4.40;99.90
24645;DHT22;12780;45.502;9.146;2023-02-27T03:56:01;4.40;99.90
24645;DHT22;12780;45.502;9.146;2023-02-27T03:58:29;4.40;99.90
24645;DHT22;12780;45.502;9.146;2023-02-27T04:00:55;4.40;99.90
24645;DHT22;12780;45.502;9.146;2023-02-27T04:03:21;4.50;99.90
24645;DHT22;12780;45.502;9.146;2023-02-27T04:05:47;4.40;99.90
24645;DHT22;12780;45.502;9.146;2023-02-27T04:11:03;4.50;99.90
24645;DHT22;12780;45.502;9.146;2023-02-27T04:13:37;4.50;99.90
24645;DHT22;12780;45.502;9.146;2023-02-27T04:24:36;4.50;99.90
24645;DHT22;12780;45.502;9.146;2023-02-27T04:27:18;4.50;99.90
24645;DHT22;12780;45.502;9.146;2023-02-27T04:30:10;4.50;99.90
24645;DHT22;12780;45.502;9.146;2023-02-27T04:32:52;4.50;99.90
24645;DHT22;12780;45.502;9.146;2023-02-27T04:35:25;4.50;99.90
24645;DHT22;12780;45.502;9.146;2023-02-27T04:40:44;4.40;99.90
24645;DHT22;12780;45.502;9.146;2023-02-27T04:43:12;4.40;99.90
24645;DHT22;12780;45.502;9.146;2023-02-27T04:45:39;4.30;99.90
24645;DHT22;12780;45.502;9.146;2023-02-27T04:51:01;4.30;99.90
24645;DHT22;12780;45.502;9.146;2023-02-27T04:53:36;4.30;99.90
24645;DHT22;12780;45.502;9.146;2023-02-27T04:56:06;4.30;99.90
24645;DHT22;12780;45.502;9.146;2023-02-27T04:58:37;4.40;99.90
24645;DHT22;12780;45.502;9.146;2023-02-27T05:01:11;4.40;99.90
24645;DHT22;12780;45.502;9.146;2023-02-27T05:03:42;4.50;99.90
24645;DHT22;12780;45.502;9.146;2023-02-27T05:06:09;4.60;99.90
24645;DHT22;12780;45.502;9.146;2023-02-27T05:08:43;4.60;99.90
24645;DHT22;12780;45.502;9.146;2023-02-27T05:11:20;4.60;99.90
24645;DHT22;12780;45.502;9.146;2023-02-27T05:14:03;4.70;99.90
24645;DHT22;12780;45.502;9.146;2023-02-27T05:16:35;4.60;99.90
24645;DHT22;12780;45.502;9.146;2023-02-27T05:19:03;4.70;99.90
24645;DHT22;12780;45.502;9.146;2023-02-27T05:21:41;4.60;99.90
24645;DHT22;12780;45.502;9.146;2023-02-27T05:29:42;4.50;99.90
24645;DHT22;12780;45.502;9.146;2023-02-27T05:32:32;4.40;99.90
24645;DHT22;12780;45.502;9.146;2023-02-27T05:38:05;4.50;99.90
24645;DHT22;12780;45.502;9.146;2023-02-27T05:40:39;4.40;99.90
24645;DHT22;12780;45.502;9.146;2023-02-27T05:43:14;4.40;99.90
24645;DHT22;12780;45.502;9.146;2023-02-27T05:45:43;4.40;99.90
24645;DHT22;12780;45.502;9.146;2023-02-27T05:48:28;4.50;99.90
24645;DHT22;12780;45.502;9.146;2023-02-27T05:50:55;4.50;99.90
24645;DHT22;12780;45.502;9.146;2023-02-27T05:53:24;4.50;99.90
24645;DHT22;12780;45.502;9.146;2023-02-27T05:55:53;4.60;99.90
24645;DHT22;12780;45.502;9.146;2023-02-27T05:58:31;4.50;99.90
24645;DHT22;12780;45.502;9.146;2023-02-27T06:01:03;4.50;99.90
24645;DHT22;12780;45.502;9.146;2023-02-27T06:03:31;4.60;99.90
24645;DHT22;12780;45.502;9.146;2023-02-27T06:05:59;4.60;99.90
24645;DHT22;12780;45.502;9.146;2023-02-27T06:08:26;4.60;99.90
24645;DHT22;12780;45.502;9.146;2023-02-27T06:10:51;4.60;99.90
24645;DHT22;12780;45.502;9.146;2023-02-27T06:13:17;4.70;99.90
24645;DHT22;12780;45.502;9.146;2023-02-27T06:15:46;4.80;99.90
24645;DHT22;12780;45.502;9.146;2023-02-27T06:18:13;4.70;99.90
24645;DHT22;12780;45.502;9.146;2023-02-27T06:20:40;4.70;99.90
24645;DHT22;12780;45.502;9.146;2023-02-27T06:23:06;4.60;99.90
24645;DHT22;12780;45.502;9.146;2023-02-27T06:25:32;4.70;99.90
24645;DHT22;12780;45.502;9.146;2023-02-27T06:27:58;4.60;99.90
24645;DHT22;12780;45.502;9.146;2023-02-27T06:30:24;4.50;99.90
24645;DHT22;12780;45.502;9.146;2023-02-27T06:32:49;4.50;99.90
24645;DHT22;12780;45.502;9.146;2023-02-27T06:35:15;4.60;99.90
24645;DHT22;12780;45.502;9.146;2023-02-27T06:37:41;4.60;99.90
24645;DHT22;12780;45.502;9.146;2023-02-27T06:40:07;4.60;99.90
24645;DHT22;12780;45.502;9.146;2023-02-27T06:42:40;4.70;99.90
24645;DHT22;12780;45.502;9.146;2023-02-27T06:45:07;4.70;99.90
24645;DHT22;12780;45.502;9.146;2023-02-27T06:47:33;4.70;99.90
24645;DHT22;12780;45.502;9.146;2023-02-27T06:49:59;4.70;99.90
24645;DHT22;12780;45.502;9.146;2023-02-27T06:52:25;4.60;99.90
24645;DHT22;12780;45.502;9.146;2023-02-27T06:54:51;4.70;99.90
24645;DHT22;12780;45.502;9.146;2023-02-27T06:57:17;4.70;99.90
24645;DHT22;12780;45.502;9.146;2023-02-27T06:59:42;4.80;99.90
24645;DHT22;12780;45.502;9.146;2023-02-27T07:02:12;4.70;99.90
24645;DHT22;12780;45.502;9.146;2023-02-27T07:04:38;4.70;99.90
24645;DHT22;12780;45.502;9.146;2023-02-27T07:07:04;4.80;99.90
24645;DHT22;12780;45.502;9.146;2023-02-27T07:09:30;4.80;99.90
24645;DHT22;12780;45.502;9.146;2023-02-27T07:11:55;4.80;99.90
24645;DHT22;12780;45.502;9.146;2023-02-27T07:14:21;4.90;99.90
24645;DHT22;12780;45.502;9.146;2023-02-27T07:16:47;4.80;99.90
24645;DHT22;12780;45.502;9.146;2023-02-27T07:19:16;4.70;99.90
24645;DHT22;12780;45.502;9.146;2023-02-27T07:21:43;4.60;99.90
24645;DHT22;12780;45.502;9.146;2023-02-27T07:24:09;4.50;99.90
24645;DHT22;12780;45.502;9.146;2023-02-27T07:26:35;4.50;99.90
24645;DHT22;12780;45.502;9.146;2023-02-27T07:29:00;4.40;99.90
24645;DHT22;12780;45.502;9.146;2023-02-27T07:31:26;4.40;99.90
24645;DHT22;12780;45.502;9.146;2023-02-27T07:33:51;4.40;99.90
24645;DHT22;12780;45.502;9.146;2023-02-27T07:36:17;4.30;99.90
24645;DHT22;12780;45.502;9.146;2023-02-27T07:38:42;4.40;99.90
24645;DHT22;12780;45.502;9.146;2023-02-27T07:41:08;4.30;99.90
24645;DHT22;12780;45.502;9.146;2023-02-27T07:43:34;4.40;99.90
24645;DHT22;12780;45.502;9.146;2023-02-27T07:45:59;4.50;99.90
24645;DHT22;12780;45.502;9.146;2023-02-27T07:48:29;4.60;99.90
24645;DHT22;12780;45.502;9.146;2023-02-27T07:50:54;4.60;99.90
24645;DHT22;12780;45.502;9.146;2023-02-27T07:53:20;4.60;99.90
24645;DHT22;12780;45.502;9.146;2023-02-27T07:55:45;4.70;99.90
24645;DHT22;12780;45.502;9.146;2023-02-27T07:58:11;4.80;99.90
24645;DHT22;12780;45.502;9.146;2023-02-27T08:00:37;4.80;99.90
24645;DHT22;12780;45.502;9.146;2023-02-27T08:03:03;5.10;99.90
24645;DHT22;12780;45.502;9.146;2023-02-27T08:05:29;4.90;99.90
24645;DHT22;12780;45.502;9.146;2023-02-27T08:07:54;5.00;99.90
24645;DHT22;12780;45.502;9.146;2023-02-27T08:10:20;5.10;99.90
24645;DHT22;12780;45.502;9.146;2023-02-27T08:12:46;5.10;99.90
24645;DHT22;12780;45.502;9.146;2023-02-27T08:15:11;5.20;99.90
24645;DHT22;12780;45.502;9.146;2023-02-27T08:17:37;5.20;99.90
24645;DHT22;12780;45.502;9.146;2023-02-27T08:20:03;5.20;99.90
24645;DHT22;12780;45.502;9.146;2023-02-27T08:22:30;5.30;99.90
24645;DHT22;12780;45.502;9.146;2023-02-27T08:24:56;5.20;99.90
24645;DHT22;12780;45.502;9.146;2023-02-27T08:27:22;5.20;99.90
24645;DHT22;12780;45.502;9.146;2023-02-27T08:29:47;5.30;99.90
24645;DHT22;12780;45.502;9.146;2023-02-27T08:32:13;5.20;99.90
24645;DHT22;12780;45.502;9.146;2023-02-27T08:34:39;5.10;99.90
24645;DHT22;12780;45.502;9.146;2023-02-27T08:37:04;5.00;99.90
24645;DHT22;12780;45.502;9.146;2023-02-27T08:39:30;4.90;99.90
24645;DHT22;12780;45.502;9.146;2023-02-27T08:41:55;4.90;99.90
24645;DHT22;12780;45.502;9.146;2023-02-27T08:44:21;4.80;99.90
24645;DHT22;12780;45.502;9.146;2023-02-27T08:46:46;4.80;99.90
24645;DHT22;12780;45.502;9.146;2023-02-27T08:49:12;4.90;99.90
24645;DHT22;12780;45.502;9.146;2023-02-27T08:51:38;4.80;99.90
24645;DHT22;12780;45.502;9.146;2023-02-27T08:54:04;4.80;99.90
24645;DHT22;12780;45.502;9.146;2023-02-27T08:56:29;4.90;99.90
24645;DHT22;12780;45.502;9.146;2023-02-27T08:58:55;4.90;99.90
24645;DHT22;12780;45.502;9.146;2023-02-27T09:01:21;5.00;99.90
24645;DHT22;12780;45.502;9.146;2023-02-27T09:03:46;5.00;99.90
24645;DHT22;12780;45.502;9.146;2023-02-27T09:06:12;5.00;99.90
24645;DHT22;12780;45.502;9.146;2023-02-27T09:08:38;5.10;99.90
24645;DHT22;12780;45.502;9.146;2023-02-27T09:11:04;5.10;99.90
24645;DHT22;12780;45.502;9.146;2023-02-27T09:13:30;5.10;99.90
24645;DHT22;12780;45.502;9.146;2023-02-27T09:15:55;5.10;99.90
24645;DHT22;12780;45.502;9.146;2023-02-27T09:18:21;5.10;99.90
24645;DHT22;12780;45.502;9.146;2023-02-27T09:20:50;5.00;99.90
24645;DHT22;12780;45.502;9.146;2023-02-27T09:23:16;5.20;99.90
24645;DHT22;12780;45.502;9.146;2023-02-27T09:25:42;5.30;99.90
24645;DHT22;12780;45.502;9.146;2023-02-27T09:28:07;5.40;99.90
